createdAt,value
2016-09-04T00:00:33.179Z,1029.05
2016-09-04T00:01:33.177Z,1029.03
2016-09-04T00:02:33.172Z,1029.03
2016-09-04T00:03:33.170Z,1029.05
2016-09-04T00:04:33.167Z,1029.04
2016-09-04T00:05:33.163Z,1029.06
2016-09-04T00:06:33.163Z,1029.06
2016-09-04T00:07:33.165Z,1029.09
2016-09-04T00:08:33.155Z,1029.11
2016-09-04T00:09:33.153Z,1029.08
2016-09-04T00:10:33.153Z,1029.09
2016-09-04T00:11:33.154Z,1029.11
2016-09-04T00:12:33.150Z,1029.05
2016-09-04T00:13:33.143Z,1029.09
2016-09-04T00:14:33.139Z,1029.1
2016-09-04T00:15:33.138Z,1029.1
2016-09-04T00:16:33.133Z,1029.11
2016-09-04T00:17:33.130Z,1029.12
2016-09-04T00:18:33.128Z,1029.08
2016-09-04T00:19:33.124Z,1029.11
2016-09-04T00:20:33.127Z,1029.1
2016-09-04T00:21:33.125Z,1029.06
2016-09-04T00:22:33.125Z,1029.04
2016-09-04T00:23:33.113Z,1029.02
2016-09-04T00:24:33.110Z,1029.02
2016-09-04T00:25:33.114Z,1029.05
2016-09-04T00:26:33.106Z,1029.05
2016-09-04T00:27:33.108Z,1029.04
2016-09-04T00:28:33.117Z,1029.04
2016-09-04T00:29:33.096Z,1029
2016-09-04T00:30:33.095Z,1029
2016-09-04T00:31:33.091Z,1028.96
2016-09-04T00:32:33.094Z,1028.96
2016-09-04T00:33:33.084Z,1028.96
2016-09-04T00:34:33.088Z,1028.98
2016-09-04T00:35:33.078Z,1029.01
2016-09-04T00:36:33.077Z,1028.96
2016-09-04T00:37:33.078Z,1028.96
2016-09-04T00:38:33.069Z,1028.96
2016-09-04T00:39:33.067Z,1028.91
2016-09-04T00:40:33.070Z,1028.93
2016-09-04T00:41:33.106Z,1028.91
2016-09-04T00:42:33.064Z,1028.91
2016-09-04T00:43:33.056Z,1028.9
2016-09-04T00:44:34.449Z,1028.9
2016-09-04T00:45:33.048Z,1028.95
2016-09-04T00:46:33.047Z,1028.95
2016-09-04T00:47:33.044Z,1028.92
2016-09-04T00:48:33.045Z,1028.88
2016-09-04T00:49:33.251Z,1028.91
2016-09-04T00:50:33.033Z,1028.89
2016-09-04T00:51:33.032Z,1028.84
2016-09-04T00:52:33.032Z,1028.83
2016-09-04T00:53:33.026Z,1028.84
2016-09-04T00:54:33.023Z,1028.78
2016-09-04T00:55:33.020Z,1028.76
2016-09-04T00:56:33.014Z,1028.73
2016-09-04T00:57:33.016Z,1028.72
2016-09-04T00:58:33.008Z,1028.75
2016-09-04T00:59:33.005Z,1028.75
2016-09-04T01:00:33.005Z,1028.75
2016-09-04T01:01:33.005Z,1028.76
2016-09-04T01:02:32.995Z,1028.75
2016-09-04T01:03:33.297Z,1028.75
2016-09-04T01:04:32.990Z,1028.73
2016-09-04T01:05:33.342Z,1028.72
2016-09-04T01:06:32.982Z,1028.68
2016-09-04T01:07:32.979Z,1028.64
2016-09-04T01:08:32.976Z,1028.61
2016-09-04T01:09:32.973Z,1028.6
2016-09-04T01:10:32.980Z,1028.54
2016-09-04T01:11:32.965Z,1028.53
2016-09-04T01:12:32.965Z,1028.48
2016-09-04T01:13:33.460Z,1028.49
2016-09-04T01:14:32.956Z,1028.48
2016-09-04T01:15:32.953Z,1028.49
2016-09-04T01:16:32.950Z,1028.43
2016-09-04T01:17:32.953Z,1028.41
2016-09-04T01:18:32.945Z,1028.38
2016-09-04T01:19:32.945Z,1028.36
2016-09-04T01:20:32.937Z,1028.35
2016-09-04T01:21:32.932Z,1028.33
2016-09-04T01:22:32.931Z,1028.31
2016-09-04T01:23:32.926Z,1028.3
2016-09-04T01:24:32.925Z,1028.22
2016-09-04T01:25:32.920Z,1028.21
2016-09-04T01:26:32.917Z,1028.16
2016-09-04T01:27:32.915Z,1028.14
2016-09-04T01:28:32.915Z,1028.13
2016-09-04T01:29:32.907Z,1028.1
2016-09-04T01:30:32.909Z,1028.11
2016-09-04T01:31:32.901Z,1028.08
2016-09-04T01:32:32.897Z,1028.04
2016-09-04T01:33:32.894Z,1028.02
2016-09-04T01:34:32.897Z,1028
2016-09-04T01:35:32.890Z,1028
2016-09-04T01:36:32.884Z,1027.98
2016-09-04T01:37:32.882Z,1027.93
2016-09-04T01:38:32.883Z,1027.9
2016-09-04T01:39:32.877Z,1027.87
2016-09-04T01:40:32.874Z,1027.82
2016-09-04T01:41:32.867Z,1027.83
2016-09-04T01:42:32.866Z,1027.83
2016-09-04T01:43:32.863Z,1027.81
2016-09-04T01:44:32.861Z,1027.76
2016-09-04T01:45:32.856Z,1027.73
2016-09-04T01:46:32.853Z,1027.69
2016-09-04T01:47:32.851Z,1027.64
2016-09-04T01:48:32.853Z,1027.58
2016-09-04T01:49:32.844Z,1027.54
2016-09-04T01:50:32.842Z,1027.5
2016-09-04T01:51:32.839Z,1027.51
2016-09-04T01:52:32.836Z,1027.49
2016-09-04T01:53:32.832Z,1027.5
2016-09-04T01:54:32.828Z,1027.46
2016-09-04T01:55:32.831Z,1027.48
2016-09-04T01:56:32.822Z,1027.45
2016-09-04T01:57:32.819Z,1027.46
2016-09-04T01:58:32.819Z,1027.44
2016-09-04T01:59:32.820Z,1027.39
2016-09-04T02:00:32.817Z,1027.36
2016-09-04T02:01:34.678Z,1027.29
2016-09-04T02:02:33.152Z,1027.25
2016-09-04T02:03:33.637Z,1027.22
2016-09-04T02:04:32.802Z,1027.21
2016-09-04T02:05:32.796Z,1027.2
2016-09-04T02:06:32.794Z,1027.14
2016-09-04T02:07:32.793Z,1027.16
2016-09-04T02:08:32.932Z,1027.11
2016-09-04T02:09:32.792Z,1027.11
2016-09-04T02:10:32.783Z,1027.09
2016-09-04T02:11:32.786Z,1027.07
2016-09-04T02:12:32.779Z,1027.03
2016-09-04T02:13:32.774Z,1027.06
2016-09-04T02:14:32.771Z,1027.04
2016-09-04T02:15:32.775Z,1027.05
2016-09-04T02:16:32.778Z,1027.03
2016-09-04T02:17:32.762Z,1027.04
2016-09-04T02:18:32.766Z,1027.03
2016-09-04T02:19:32.864Z,1027.06
2016-09-04T02:20:32.757Z,1027.08
2016-09-04T02:21:32.752Z,1027.08
2016-09-04T02:22:32.756Z,1027.07
2016-09-04T02:23:32.748Z,1027.05
2016-09-04T02:24:32.744Z,1027.09
2016-09-04T02:25:32.741Z,1027.12
2016-09-04T02:26:32.745Z,1027.05
2016-09-04T02:27:32.735Z,1027.05
2016-09-04T02:28:32.982Z,1027.01
2016-09-04T02:29:32.739Z,1026.96
2016-09-04T02:30:32.729Z,1026.95
2016-09-04T02:31:32.726Z,1026.98
2016-09-04T02:32:32.722Z,1026.94
2016-09-04T02:33:32.719Z,1026.91
2016-09-04T02:34:32.716Z,1026.87
2016-09-04T02:35:32.716Z,1026.86
2016-09-04T02:36:32.712Z,1026.81
2016-09-04T02:37:32.711Z,1026.8
2016-09-04T02:38:32.711Z,1026.79
2016-09-04T02:39:32.705Z,1026.7
2016-09-04T02:40:32.708Z,1026.64
2016-09-04T02:41:32.701Z,1026.62
2016-09-04T02:42:32.701Z,1026.59
2016-09-04T02:43:32.694Z,1026.55
2016-09-04T02:44:32.690Z,1026.54
2016-09-04T02:45:32.689Z,1026.51
2016-09-04T02:46:32.684Z,1026.53
2016-09-04T02:47:32.689Z,1026.48
2016-09-04T02:48:32.681Z,1026.45
2016-09-04T02:49:32.680Z,1026.47
2016-09-04T02:50:32.674Z,1026.45
2016-09-04T02:51:32.673Z,1026.43
2016-09-04T02:52:32.676Z,1026.47
2016-09-04T02:53:32.673Z,1026.51
2016-09-04T02:54:32.667Z,1026.5
2016-09-04T02:55:32.673Z,1026.5
2016-09-04T02:56:32.666Z,1026.54
2016-09-04T02:57:32.657Z,1026.54
2016-09-04T02:58:32.655Z,1026.56
2016-09-04T02:59:32.653Z,1026.59
2016-09-04T03:00:32.656Z,1026.6
2016-09-04T03:01:32.652Z,1026.61
2016-09-04T03:02:32.653Z,1026.59
2016-09-04T03:03:32.649Z,1026.62
2016-09-04T03:04:32.646Z,1026.59
2016-09-04T03:05:32.640Z,1026.61
2016-09-04T03:06:32.635Z,1026.64
2016-09-04T03:07:32.638Z,1026.64
2016-09-04T03:08:32.636Z,1026.61
2016-09-04T03:09:32.629Z,1026.62
2016-09-04T03:10:32.632Z,1026.6
2016-09-04T03:11:33.800Z,1026.57
2016-09-04T03:12:32.620Z,1026.56
2016-09-04T03:13:32.619Z,1026.52
2016-09-04T03:14:32.614Z,1026.49
2016-09-04T03:15:32.613Z,1026.45
2016-09-04T03:16:32.610Z,1026.45
2016-09-04T03:17:32.606Z,1026.44
2016-09-04T03:18:32.609Z,1026.38
2016-09-04T03:19:33.089Z,1026.37
2016-09-04T03:20:32.598Z,1026.34
2016-09-04T03:21:32.597Z,1026.31
2016-09-04T03:22:32.598Z,1026.34
2016-09-04T03:23:32.590Z,1026.31
2016-09-04T03:24:32.594Z,1026.32
2016-09-04T03:25:32.586Z,1026.34
2016-09-04T03:26:32.589Z,1026.31
2016-09-04T03:27:32.585Z,1026.29
2016-09-04T03:28:32.584Z,1026.29
2016-09-04T03:29:32.575Z,1026.31
2016-09-04T03:30:32.572Z,1026.29
2016-09-04T03:31:32.572Z,1026.3
2016-09-04T03:32:32.567Z,1026.32
2016-09-04T03:33:32.570Z,1026.33
2016-09-04T03:34:32.561Z,1026.31
2016-09-04T03:35:32.559Z,1026.28
2016-09-04T03:36:32.909Z,1026.27
2016-09-04T03:37:32.561Z,1026.19
2016-09-04T03:38:33.152Z,1026.2
2016-09-04T03:39:32.556Z,1026.2
2016-09-04T03:40:32.546Z,1026.17
2016-09-04T03:41:32.551Z,1026.14
2016-09-04T03:42:32.542Z,1026.14
2016-09-04T03:43:32.540Z,1026.09
2016-09-04T03:44:32.538Z,1026.09
2016-09-04T03:45:33.284Z,1026.09
2016-09-04T03:46:32.537Z,1026.1
2016-09-04T03:48:32.526Z,1026.06
2016-09-04T03:49:32.523Z,1026.05
2016-09-04T03:50:32.823Z,1026.03
2016-09-04T03:51:32.517Z,1026.02
2016-09-04T03:52:32.514Z,1026.05
2016-09-04T03:53:32.515Z,1026.01
2016-09-04T03:54:32.511Z,1025.97
2016-09-04T03:55:32.509Z,1025.97
2016-09-04T03:56:32.504Z,1025.98
2016-09-04T03:57:32.502Z,1025.97
2016-09-04T03:58:32.505Z,1026.01
2016-09-04T03:59:32.499Z,1026.02
2016-09-04T04:00:32.494Z,1026
2016-09-04T04:01:32.496Z,1025.99
2016-09-04T04:02:32.489Z,1025.95
2016-09-04T04:03:32.488Z,1025.94
2016-09-04T04:04:32.491Z,1025.89
2016-09-04T04:05:32.481Z,1025.9
2016-09-04T04:06:32.486Z,1025.89
2016-09-04T04:07:32.479Z,1025.86
2016-09-04T04:08:32.473Z,1025.84
2016-09-04T04:09:32.470Z,1025.81
2016-09-04T04:10:32.474Z,1025.79
2016-09-04T04:11:32.472Z,1025.79
2016-09-04T04:12:32.464Z,1025.8
2016-09-04T04:13:32.467Z,1025.79
2016-09-04T04:14:32.465Z,1025.77
2016-09-04T04:15:32.458Z,1025.81
2016-09-04T04:16:32.461Z,1025.82
2016-09-04T04:17:32.453Z,1025.82
2016-09-04T04:18:32.449Z,1025.78
2016-09-04T04:19:32.446Z,1025.78
2016-09-04T04:20:32.449Z,1025.77
2016-09-04T04:21:32.440Z,1025.77
2016-09-04T04:22:32.444Z,1025.77
2016-09-04T04:23:32.439Z,1025.82
2016-09-04T04:24:32.436Z,1025.83
2016-09-04T04:25:32.430Z,1025.86
2016-09-04T04:26:32.428Z,1025.88
2016-09-04T04:27:32.433Z,1025.83
2016-09-04T04:28:33.615Z,1025.84
2016-09-04T04:29:32.421Z,1025.83
2016-09-04T04:30:32.980Z,1025.82
2016-09-04T04:31:32.415Z,1025.85
2016-09-04T04:32:32.413Z,1025.82
2016-09-04T04:33:32.416Z,1025.85
2016-09-04T04:34:32.414Z,1025.82
2016-09-04T04:35:32.405Z,1025.78
2016-09-04T04:36:32.403Z,1025.71
2016-09-04T04:37:32.401Z,1025.69
2016-09-04T04:38:32.398Z,1025.73
2016-09-04T04:39:32.394Z,1025.71
2016-09-04T04:40:32.394Z,1025.7
2016-09-04T04:41:32.390Z,1025.71
2016-09-04T04:42:32.387Z,1025.73
2016-09-04T04:43:32.385Z,1025.74
2016-09-04T04:44:32.384Z,1025.75
2016-09-04T04:45:32.380Z,1025.73
2016-09-04T04:46:32.377Z,1025.71
2016-09-04T04:47:32.424Z,1025.7
2016-09-04T04:48:32.375Z,1025.66
2016-09-04T04:49:32.378Z,1025.64
2016-09-04T04:50:32.368Z,1025.63
2016-09-04T04:51:32.372Z,1025.66
2016-09-04T04:52:32.365Z,1025.66
2016-09-04T04:53:32.366Z,1025.69
2016-09-04T04:54:32.360Z,1025.69
2016-09-04T04:55:32.357Z,1025.64
2016-09-04T04:56:32.354Z,1025.6
2016-09-04T04:57:32.351Z,1025.56
2016-09-04T04:58:32.350Z,1025.56
2016-09-04T04:59:32.353Z,1025.52
2016-09-04T05:00:32.346Z,1025.53
2016-09-04T05:01:32.347Z,1025.48
2016-09-04T05:02:32.339Z,1025.43
2016-09-04T05:03:32.343Z,1025.42
2016-09-04T05:04:32.334Z,1025.4
2016-09-04T05:05:32.332Z,1025.36
2016-09-04T05:06:32.330Z,1025.37
2016-09-04T05:07:32.328Z,1025.37
2016-09-04T05:08:32.327Z,1025.43
2016-09-04T05:09:32.323Z,1025.4
2016-09-04T05:10:32.321Z,1025.37
2016-09-04T05:11:32.318Z,1025.31
2016-09-04T05:12:32.319Z,1025.29
2016-09-04T05:13:32.321Z,1025.27
2016-09-04T05:14:32.313Z,1025.28
2016-09-04T05:15:32.310Z,1025.25
2016-09-04T05:16:32.308Z,1025.27
2016-09-04T05:17:32.305Z,1025.28
2016-09-04T05:18:32.304Z,1025.29
2016-09-04T05:19:32.303Z,1025.33
2016-09-04T05:20:32.305Z,1025.35
2016-09-04T05:21:32.297Z,1025.35
2016-09-04T05:22:32.294Z,1025.31
2016-09-04T05:23:32.293Z,1025.31
2016-09-04T05:24:32.297Z,1025.31
2016-09-04T05:25:32.290Z,1025.33
2016-09-04T05:26:32.292Z,1025.29
2016-09-04T05:27:32.283Z,1025.26
2016-09-04T05:28:32.287Z,1025.19
2016-09-04T05:29:32.282Z,1025.14
2016-09-04T05:30:32.280Z,1025.12
2016-09-04T05:31:32.276Z,1025.09
2016-09-04T05:32:32.274Z,1025.08
2016-09-04T05:33:32.277Z,1025.13
2016-09-04T05:34:32.270Z,1025.18
2016-09-04T05:35:32.287Z,1025.16
2016-09-04T05:36:32.265Z,1025.15
2016-09-04T05:37:32.263Z,1025.15
2016-09-04T05:38:32.261Z,1025.12
2016-09-04T05:39:32.261Z,1025.03
2016-09-04T05:40:32.268Z,1024.98
2016-09-04T05:41:32.257Z,1025.01
2016-09-04T05:42:32.260Z,1025
2016-09-04T05:43:32.254Z,1025.01
2016-09-04T05:44:32.256Z,1024.98
2016-09-04T05:45:32.250Z,1024.96
2016-09-04T05:46:32.246Z,1024.95
2016-09-04T05:47:32.248Z,1024.99
2016-09-04T05:48:32.244Z,1024.95
2016-09-04T05:49:32.241Z,1024.96
2016-09-04T05:50:32.239Z,1024.91
2016-09-04T05:51:32.244Z,1024.87
2016-09-04T05:52:32.235Z,1024.86
2016-09-04T05:53:32.241Z,1024.82
2016-09-04T05:54:32.235Z,1024.77
2016-09-04T05:55:32.236Z,1024.73
2016-09-04T05:56:32.229Z,1024.68
2016-09-04T05:57:32.233Z,1024.63
2016-09-04T05:58:32.227Z,1024.61
2016-09-04T05:59:33.075Z,1024.56
2016-09-04T06:00:32.230Z,1024.52
2016-09-04T06:01:32.221Z,1024.45
2016-09-04T06:02:32.220Z,1024.39
2016-09-04T06:03:32.220Z,1024.22
2016-09-04T06:04:32.219Z,1024.1
2016-09-04T06:05:32.223Z,1023.98
2016-09-04T06:06:32.213Z,1023.9
2016-09-04T06:07:32.221Z,1023.83
2016-09-04T06:08:32.211Z,1023.68
2016-09-04T06:09:32.212Z,1023.57
2016-09-04T06:10:32.211Z,1023.45
2016-09-04T06:11:32.210Z,1023.15
2016-09-04T06:12:33.410Z,1022.89
2016-09-04T06:13:33.010Z,1022.55
2016-09-04T06:14:32.208Z,1022.16
2016-09-04T06:15:32.610Z,1021.86
2016-09-04T06:16:33.059Z,1021.5
2016-09-04T06:17:32.207Z,1021.26
2016-09-04T06:18:32.215Z,1021.22
2016-09-04T06:19:32.210Z,1021.31
2016-09-04T06:20:32.210Z,1021.3
2016-09-04T06:21:32.211Z,1021.34
2016-09-04T06:22:32.213Z,1021.4
2016-09-04T06:23:32.216Z,1021.38
2016-09-04T06:24:32.218Z,1021.35
2016-09-04T06:25:32.218Z,1021.08
2016-09-04T06:26:32.223Z,1021
2016-09-04T06:27:32.225Z,1020.83
2016-09-04T06:28:32.226Z,1020.59
2016-09-04T06:29:32.229Z,1020.47
2016-09-04T06:30:32.231Z,1020.16
2016-09-04T06:31:32.250Z,1020.03
2016-09-04T06:32:32.240Z,1019.59
2016-09-04T06:33:32.243Z,1019.64
2016-09-04T06:34:32.246Z,1019.4
2016-09-04T06:35:32.250Z,1019.22
2016-09-04T06:36:32.253Z,1019.13
2016-09-04T06:37:32.265Z,1019.09
2016-09-04T06:38:32.263Z,1019.27
2016-09-04T06:39:32.274Z,1019.67
2016-09-04T06:40:32.276Z,1019.99
2016-09-04T06:41:32.279Z,1020.26
2016-09-04T06:42:32.286Z,1020.58
2016-09-04T06:43:32.291Z,1020.74
2016-09-04T06:44:32.294Z,1020.89
2016-09-04T06:45:32.307Z,1020.83
2016-09-04T06:46:32.306Z,1020.86
2016-09-04T06:47:32.411Z,1020.82
2016-09-04T06:48:32.319Z,1020.57
2016-09-04T06:49:32.334Z,1020.53
2016-09-04T06:50:32.327Z,1020.49
2016-09-04T06:51:32.339Z,1020.49
2016-09-04T06:52:32.338Z,1020.33
2016-09-04T06:53:32.350Z,1020.23
2016-09-04T06:54:32.351Z,1020.14
2016-09-04T06:55:32.354Z,1019.97
2016-09-04T06:56:32.361Z,1019.79
2016-09-04T06:57:32.372Z,1019.44
2016-09-04T06:58:32.373Z,1019.23
2016-09-04T06:59:32.377Z,1019.04
2016-09-04T07:00:32.385Z,1018.77
2016-09-04T07:01:32.389Z,1018.61
2016-09-04T07:02:32.403Z,1018.19
2016-09-04T07:03:32.402Z,1017.9
2016-09-04T07:04:32.411Z,1018.02
2016-09-04T07:05:32.416Z,1018.4
2016-09-04T07:06:32.423Z,1018.66
2016-09-04T07:07:32.433Z,1018.87
2016-09-04T07:08:32.444Z,1019.07
2016-09-04T07:09:32.447Z,1019.28
2016-09-04T07:10:32.459Z,1019.38
2016-09-04T07:11:32.461Z,1019.54
2016-09-04T07:12:32.472Z,1019.59
2016-09-04T07:13:33.955Z,1019.69
2016-09-04T07:14:33.457Z,1019.81
2016-09-04T07:15:32.492Z,1019.89
2016-09-04T07:16:32.921Z,1019.96
2016-09-04T07:17:32.974Z,1019.94
2016-09-04T07:18:32.510Z,1020.04
2016-09-04T07:19:32.516Z,1019.99
2016-09-04T07:20:32.530Z,1019.9
2016-09-04T07:21:32.534Z,1019.78
2016-09-04T07:22:32.545Z,1019.68
2016-09-04T07:23:32.546Z,1019.51
2016-09-04T07:24:32.559Z,1019.35
2016-09-04T07:25:32.562Z,1019.4
2016-09-04T07:26:32.578Z,1019.46
2016-09-04T07:27:32.573Z,1019.44
2016-09-04T07:28:32.582Z,1019.32
2016-09-04T07:29:32.591Z,1019.41
2016-09-04T07:30:32.595Z,1019.51
2016-09-04T07:31:32.602Z,1019.61
2016-09-04T07:33:32.616Z,1019.59
2016-09-04T07:34:32.624Z,1019.57
2016-09-04T07:35:32.636Z,1019.52
2016-09-04T07:36:32.989Z,1019.38
2016-09-04T07:37:32.651Z,1019.62
2016-09-04T07:38:32.651Z,1019.79
2016-09-04T07:39:32.666Z,1019.81
2016-09-04T07:40:32.668Z,1019.84
2016-09-04T07:41:32.672Z,1019.83
2016-09-04T07:42:33.082Z,1019.75
2016-09-04T07:43:32.887Z,1019.67
2016-09-04T07:44:32.695Z,1019.69
2016-09-04T07:45:32.706Z,1019.76
2016-09-04T07:46:32.710Z,1019.83
2016-09-04T07:47:32.765Z,1019.89
2016-09-04T07:48:32.724Z,1019.94
2016-09-04T07:49:32.727Z,1020.09
2016-09-04T07:50:32.735Z,1020.22
2016-09-04T07:51:32.749Z,1020.25
2016-09-04T07:52:32.750Z,1020.34
2016-09-04T07:53:32.761Z,1020.46
2016-09-04T07:54:32.762Z,1020.61
2016-09-04T07:55:32.769Z,1020.72
2016-09-04T07:56:32.774Z,1020.75
2016-09-04T07:57:32.783Z,1020.84
2016-09-04T07:58:32.794Z,1020.86
2016-09-04T07:59:32.794Z,1020.88
2016-09-04T08:00:32.800Z,1020.92
2016-09-04T08:01:32.808Z,1020.95
2016-09-04T08:02:32.818Z,1020.98
2016-09-04T08:03:32.820Z,1021.05
2016-09-04T08:04:32.830Z,1021.04
2016-09-04T08:05:32.830Z,1021.02
2016-09-04T08:06:32.842Z,1020.99
2016-09-04T08:07:32.841Z,1020.95
2016-09-04T08:08:32.847Z,1020.98
2016-09-04T08:09:32.859Z,1020.98
2016-09-04T08:10:32.859Z,1021.02
2016-09-04T08:11:32.864Z,1021
2016-09-04T08:12:32.871Z,1021.04
2016-09-04T08:13:32.891Z,1021.04
2016-09-04T08:14:32.880Z,1021.05
2016-09-04T08:15:32.892Z,1021.12
2016-09-04T08:16:32.891Z,1021.13
2016-09-04T08:17:32.897Z,1021.16
2016-09-04T08:18:32.902Z,1021.18
2016-09-04T08:19:32.909Z,1021.19
2016-09-04T08:20:32.913Z,1021.17
2016-09-04T08:21:32.921Z,1021.23
2016-09-04T08:23:34.412Z,1021.32
2016-09-04T08:24:32.935Z,1021.4
2016-09-04T08:25:33.951Z,1021.4
2016-09-04T08:26:32.945Z,1021.41
2016-09-04T08:27:32.950Z,1021.39
2016-09-04T08:28:32.962Z,1021.37
2016-09-04T08:29:32.967Z,1021.34
2016-09-04T08:30:32.968Z,1021.32
2016-09-04T08:31:32.971Z,1021.24
2016-09-04T08:32:32.977Z,1021.18
2016-09-04T08:33:34.352Z,1021.04
2016-09-04T08:34:32.986Z,1020.94
2016-09-04T08:35:32.995Z,1020.9
2016-09-04T08:36:33.009Z,1020.74
2016-09-04T08:37:33.006Z,1020.7
2016-09-04T08:38:33.012Z,1020.66
2016-09-04T08:39:33.018Z,1020.55
2016-09-04T08:40:33.018Z,1020.43
2016-09-04T08:41:33.022Z,1020.33
2016-09-04T08:42:33.028Z,1020.29
2016-09-04T08:43:33.039Z,1020.29
2016-09-04T08:44:33.039Z,1020.28
2016-09-04T08:45:33.044Z,1020.18
2016-09-04T08:46:33.051Z,1020.24
2016-09-04T08:47:33.162Z,1020.21
2016-09-04T08:48:33.060Z,1020.17
2016-09-04T08:49:33.078Z,1020.31
2016-09-04T08:50:33.076Z,1020.38
2016-09-04T08:51:33.085Z,1020.61
2016-09-04T08:52:33.085Z,1020.55
2016-09-04T08:53:33.096Z,1020.53
2016-09-04T08:54:33.248Z,1020.58
2016-09-04T08:55:33.104Z,1020.67
2016-09-04T08:56:33.115Z,1020.73
2016-09-04T08:57:33.121Z,1020.7
2016-09-04T08:58:33.119Z,1020.54
2016-09-04T09:00:33.133Z,1020.67
2016-09-04T09:01:33.739Z,1020.6
2016-09-04T09:02:33.149Z,1020.67
2016-09-04T09:03:33.156Z,1020.66
2016-09-04T09:04:33.156Z,1020.52
2016-09-04T09:05:33.161Z,1020.56
2016-09-04T09:06:33.167Z,1020.66
2016-09-04T09:07:33.179Z,1020.75
2016-09-04T09:08:33.186Z,1020.8
2016-09-04T09:09:33.184Z,1020.9
2016-09-04T09:10:33.191Z,1020.9
2016-09-04T09:11:33.195Z,1020.96
2016-09-04T09:12:33.202Z,1021.04
2016-09-04T09:13:33.206Z,1021.25
2016-09-04T09:14:33.212Z,1021.3
2016-09-04T09:15:33.219Z,1021.25
2016-09-04T09:16:33.223Z,1021.35
2016-09-04T09:17:33.228Z,1021.33
2016-09-04T09:18:33.234Z,1021.37
2016-09-04T09:19:33.240Z,1021.37
2016-09-04T09:20:33.251Z,1021.42
2016-09-04T09:21:33.250Z,1021.52
2016-09-04T09:22:33.256Z,1021.55
2016-09-04T09:23:33.261Z,1021.64
2016-09-04T09:24:33.272Z,1021.61
2016-09-04T09:25:33.271Z,1021.67
2016-09-04T09:26:33.283Z,1021.72
2016-09-04T09:27:33.281Z,1021.72
2016-09-04T09:28:33.286Z,1021.68
2016-09-04T09:29:33.293Z,1021.58
2016-09-04T09:30:33.297Z,1021.63
2016-09-04T09:31:33.303Z,1021.68
2016-09-04T09:32:33.311Z,1021.68
2016-09-04T09:33:33.311Z,1021.52
2016-09-04T09:34:33.316Z,1021.56
2016-09-04T09:35:33.321Z,1021.55
2016-09-04T09:36:33.325Z,1021.47
2016-09-04T09:37:33.337Z,1021.46
2016-09-04T09:38:33.334Z,1021.45
2016-09-04T09:39:33.340Z,1021.42
2016-09-04T09:40:33.729Z,1021.48
2016-09-04T09:41:33.585Z,1021.49
2016-09-04T09:42:33.353Z,1021.58
2016-09-04T09:43:34.036Z,1021.45
2016-09-04T09:44:34.261Z,1021.39
2016-09-04T09:45:33.375Z,1021.39
2016-09-04T09:46:33.372Z,1021.48
2016-09-04T09:47:33.377Z,1021.41
2016-09-04T09:48:33.382Z,1021.5
2016-09-04T09:49:33.393Z,1021.5
2016-09-04T09:50:33.390Z,1021.5
2016-09-04T09:51:34.527Z,1021.54
2016-09-04T09:52:33.401Z,1021.58
2016-09-04T09:53:33.718Z,1021.57
2016-09-04T09:54:33.413Z,1021.6
2016-09-04T09:55:33.421Z,1021.6
2016-09-04T09:56:33.421Z,1021.49
2016-09-04T09:57:33.425Z,1021.45
2016-09-04T09:58:33.429Z,1021.42
2016-09-04T09:59:33.434Z,1021.4
2016-09-04T10:00:33.438Z,1021.42
2016-09-04T10:01:33.443Z,1021.38
2016-09-04T10:02:33.448Z,1021.44
2016-09-04T10:03:33.453Z,1021.39
2016-09-04T10:04:33.459Z,1021.44
2016-09-04T10:05:33.462Z,1021.54
2016-09-04T10:06:33.820Z,1021.63
2016-09-04T10:07:33.477Z,1021.76
2016-09-04T10:08:33.477Z,1021.85
2016-09-04T10:09:33.487Z,1021.97
2016-09-04T10:10:33.486Z,1022.1
2016-09-04T10:11:33.490Z,1022.25
2016-09-04T10:12:33.494Z,1022.38
2016-09-04T10:13:33.499Z,1022.47
2016-09-04T10:14:33.506Z,1022.54
2016-09-04T10:15:33.507Z,1022.75
2016-09-04T10:16:33.514Z,1022.92
2016-09-04T10:17:34.516Z,1023.02
2016-09-04T10:18:33.575Z,1023.11
2016-09-04T10:19:33.530Z,1023.2
2016-09-04T10:20:33.529Z,1023.34
2016-09-04T10:21:33.531Z,1023.4
2016-09-04T10:22:33.543Z,1023.52
2016-09-04T10:23:33.544Z,1023.59
2016-09-04T10:24:33.543Z,1023.68
2016-09-04T10:25:33.546Z,1023.74
2016-09-04T10:26:33.548Z,1023.82
2016-09-04T10:27:33.560Z,1023.84
2016-09-04T10:28:33.558Z,1023.86
2016-09-04T10:29:33.560Z,1023.85
2016-09-04T10:30:33.562Z,1023.87
2016-09-04T10:31:33.565Z,1023.85
2016-09-04T10:32:33.568Z,1023.85
2016-09-04T10:33:33.571Z,1023.79
2016-09-04T10:34:33.573Z,1023.81
2016-09-04T10:35:33.578Z,1023.89
2016-09-04T10:36:33.585Z,1023.84
2016-09-04T10:37:33.584Z,1023.87
2016-09-04T10:38:33.590Z,1023.91
2016-09-04T10:39:33.586Z,1023.89
2016-09-04T10:40:33.597Z,1023.95
2016-09-04T10:41:33.591Z,1023.96
2016-09-04T10:42:33.596Z,1023.93
2016-09-04T10:43:33.601Z,1023.97
2016-09-04T10:44:33.599Z,1023.95
2016-09-04T10:45:33.600Z,1023.96
2016-09-04T10:46:33.604Z,1023.94
2016-09-04T10:47:33.718Z,1023.91
2016-09-04T10:48:33.614Z,1023.88
2016-09-04T10:49:33.612Z,1023.94
2016-09-04T10:50:33.612Z,1023.89
2016-09-04T10:51:33.615Z,1023.96
2016-09-04T10:52:33.616Z,1023.93
2016-09-04T10:53:33.619Z,1023.96
2016-09-04T10:54:33.625Z,1023.98
2016-09-04T10:55:33.622Z,1023.99
2016-09-04T10:56:33.631Z,1023.98
2016-09-04T10:57:33.628Z,1024.02
2016-09-04T10:58:33.635Z,1024.05
2016-09-04T10:59:33.630Z,1024.08
2016-09-04T11:00:33.632Z,1024.09
2016-09-04T11:01:34.320Z,1024.09
2016-09-04T11:02:33.638Z,1024.16
2016-09-04T11:03:33.640Z,1024.2
2016-09-04T11:04:33.641Z,1024.28
2016-09-04T11:05:33.648Z,1024.35
2016-09-04T11:06:33.642Z,1024.42
2016-09-04T11:07:33.645Z,1024.57
2016-09-04T11:08:33.647Z,1024.64
2016-09-04T11:09:34.649Z,1024.63
2016-09-04T11:10:33.696Z,1024.67
2016-09-04T11:11:34.504Z,1024.7
2016-09-04T11:12:33.660Z,1024.75
2016-09-04T11:13:33.656Z,1024.68
2016-09-04T11:14:33.658Z,1024.62
2016-09-04T11:15:33.663Z,1024.62
2016-09-04T11:16:33.659Z,1024.58
2016-09-04T11:17:33.665Z,1024.51
2016-09-04T11:18:33.660Z,1024.4
2016-09-04T11:19:33.662Z,1024.31
2016-09-04T11:20:33.664Z,1024.21
2016-09-04T11:21:33.664Z,1024.15
2016-09-04T11:22:33.668Z,1024.05
2016-09-04T11:23:33.667Z,1023.93
2016-09-04T11:24:34.169Z,1023.81
2016-09-04T11:25:33.670Z,1023.73
2016-09-04T11:26:33.672Z,1023.71
2016-09-04T11:27:33.673Z,1023.61
2016-09-04T11:28:33.681Z,1023.53
2016-09-04T11:29:33.675Z,1023.41
2016-09-04T11:30:33.683Z,1023.29
2016-09-04T11:31:33.679Z,1023.26
2016-09-04T11:32:33.687Z,1023.19
2016-09-04T11:33:33.683Z,1023.08
2016-09-04T11:34:33.686Z,1022.98
2016-09-04T11:36:33.896Z,1022.87
2016-09-04T11:37:33.690Z,1022.88
2016-09-04T11:38:33.692Z,1022.81
2016-09-04T11:39:33.701Z,1022.73
2016-09-04T11:40:33.697Z,1022.63
2016-09-04T11:41:33.698Z,1022.56
2016-09-04T11:42:33.701Z,1022.48
2016-09-04T11:43:33.702Z,1022.47
2016-09-04T11:44:33.705Z,1022.44
2016-09-04T11:45:33.707Z,1022.44
2016-09-04T11:46:33.716Z,1022.43
2016-09-04T11:47:33.712Z,1022.36
2016-09-04T11:48:33.715Z,1022.34
2016-09-04T11:49:33.723Z,1022.33
2016-09-04T11:50:33.725Z,1022.29
2016-09-04T11:51:33.728Z,1022.34
2016-09-04T11:52:33.726Z,1022.33
2016-09-04T11:53:33.728Z,1022.32
2016-09-04T11:54:33.730Z,1022.26
2016-09-04T11:55:33.733Z,1022.15
2016-09-04T11:56:33.742Z,1022.02
2016-09-04T11:57:33.738Z,1021.94
2016-09-04T11:58:33.748Z,1021.9
2016-09-04T11:59:33.744Z,1021.86
2016-09-04T12:00:33.750Z,1021.8
2016-09-04T12:01:33.755Z,1021.74
2016-09-04T12:02:33.755Z,1021.74
2016-09-04T12:03:33.756Z,1021.72
2016-09-04T12:04:33.766Z,1021.7
2016-09-04T12:05:33.762Z,1021.65
2016-09-04T12:06:33.771Z,1021.68
2016-09-04T12:07:33.769Z,1021.73
2016-09-04T12:08:33.774Z,1021.74
2016-09-04T12:09:33.775Z,1021.69
2016-09-04T12:10:33.778Z,1021.76
2016-09-04T12:11:33.788Z,1021.83
2016-09-04T12:12:33.791Z,1021.89
2016-09-04T12:13:33.788Z,1021.98